sensor_id;sensor_type;location;lat;lon;timestamp;temperature;humidity
7708;DHT22;3896;48.758;8.888;2023-09-18T00:01:48;18.90;83.80
7708;DHT22;3896;48.758;8.888;2023-09-18T00:04:13;18.80;84.10
7708;DHT22;3896;48.758;8.888;2023-09-18T00:06:39;18.80;84.50
7708;DHT22;3896;48.758;8.888;2023-09-18T00:09:05;18.80;85.00
7708;DHT22;3896;48.758;8.888;2023-09-18T00:11:32;18.70;85.40
7708;DHT22;3896;48.758;8.888;2023-09-18T00:13:57;18.80;86.00
7708;DHT22;3896;48.758;8.888;2023-09-18T00:16:23;18.70;86.50
7708;DHT22;3896;48.758;8.888;2023-09-18T00:18:50;18.70;86.80
7708;DHT22;3896;48.758;8.888;2023-09-18T00:21:15;18.60;87.10
7708;DHT22;3896;48.758;8.888;2023-09-18T00:23:41;18.70;87.90
7708;DHT22;3896;48.758;8.888;2023-09-18T00:26:07;18.60;88.50
7708;DHT22;3896;48.758;8.888;2023-09-18T00:28:33;18.60;89.10
7708;DHT22;3896;48.758;8.888;2023-09-18T00:30:58;18.60;89.80
7708;DHT22;3896;48.758;8.888;2023-09-18T00:33:24;18.60;90.10
7708;DHT22;3896;48.758;8.888;2023-09-18T00:35:50;18.50;90.20
7708;DHT22;3896;48.758;8.888;2023-09-18T00:38:16;18.50;90.70
7708;DHT22;3896;48.758;8.888;2023-09-18T00:40:42;18.50;91.00
7708;DHT22;3896;48.758;8.888;2023-09-18T00:43:08;18.50;91.40
7708;DHT22;3896;48.758;8.888;2023-09-18T00:45:39;18.50;91.70
7708;DHT22;3896;48.758;8.888;2023-09-18T00:48:06;18.50;92.30
7708;DHT22;3896;48.758;8.888;2023-09-18T00:50:31;18.50;92.30
7708;DHT22;3896;48.758;8.888;2023-09-18T00:52:58;18.60;92.30
7708;DHT22;3896;48.758;8.888;2023-09-18T00:55:24;18.50;92.50
7708;DHT22;3896;48.758;8.888;2023-09-18T00:57:50;18.50;93.00
7708;DHT22;3896;48.758;8.888;2023-09-18T01:00:15;18.50;93.30
7708;DHT22;3896;48.758;8.888;2023-09-18T01:02:42;18.50;93.70
7708;DHT22;3896;48.758;8.888;2023-09-18T01:05:08;18.50;93.70
7708;DHT22;3896;48.758;8.888;2023-09-18T01:07:34;18.50;94.50
7708;DHT22;3896;48.758;8.888;2023-09-18T01:09:59;18.50;94.40
7708;DHT22;3896;48.758;8.888;2023-09-18T01:12:36;18.60;95.00
7708;DHT22;3896;48.758;8.888;2023-09-18T01:15:12;18.60;94.70
7708;DHT22;3896;48.758;8.888;2023-09-18T01:17:41;18.70;95.00
7708;DHT22;3896;48.758;8.888;2023-09-18T01:20:11;18.70;95.20
7708;DHT22;3896;48.758;8.888;2023-09-18T01:22:36;18.70;95.00
7708;DHT22;3896;48.758;8.888;2023-09-18T01:25:02;18.80;95.10
7708;DHT22;3896;48.758;8.888;2023-09-18T01:27:28;18.90;95.10
7708;DHT22;3896;48.758;8.888;2023-09-18T01:29:54;18.90;95.00
7708;DHT22;3896;48.758;8.888;2023-09-18T01:32:21;18.90;95.40
7708;DHT22;3896;48.758;8.888;2023-09-18T01:34:52;19.00;95.20
7708;DHT22;3896;48.758;8.888;2023-09-18T01:37:21;19.00;95.30
7708;DHT22;3896;48.758;8.888;2023-09-18T01:39:49;19.10;95.20
7708;DHT22;3896;48.758;8.888;2023-09-18T01:42:15;19.10;95.10
7708;DHT22;3896;48.758;8.888;2023-09-18T01:44:41;19.20;94.80
7708;DHT22;3896;48.758;8.888;2023-09-18T01:47:09;19.20;95.00
7708;DHT22;3896;48.758;8.888;2023-09-18T01:49:37;19.30;95.70
7708;DHT22;3896;48.758;8.888;2023-09-18T01:52:04;19.40;96.60
7708;DHT22;3896;48.758;8.888;2023-09-18T01:54:30;19.40;97.60
7708;DHT22;3896;48.758;8.888;2023-09-18T01:56:56;19.50;97.80
7708;DHT22;3896;48.758;8.888;2023-09-18T01:59:22;19.50;98.20
7708;DHT22;3896;48.758;8.888;2023-09-18T02:01:49;19.60;98.90
7708;DHT22;3896;48.758;8.888;2023-09-18T02:04:15;19.60;99.10
7708;DHT22;3896;48.758;8.888;2023-09-18T02:06:40;19.60;99.50
7708;DHT22;3896;48.758;8.888;2023-09-18T02:09:06;19.60;99.90
7708;DHT22;3896;48.758;8.888;2023-09-18T02:27:52;19.70;99.90
7708;DHT22;3896;48.758;8.888;2023-09-18T02:30:19;19.70;99.90
7708;DHT22;3896;48.758;8.888;2023-09-18T02:32:45;19.70;99.90
7708;DHT22;3896;48.758;8.888;2023-09-18T02:35:10;19.70;99.90
7708;DHT22;3896;48.758;8.888;2023-09-18T02:37:36;19.70;99.90
7708;DHT22;3896;48.758;8.888;2023-09-18T02:40:02;19.70;99.90
7708;DHT22;3896;48.758;8.888;2023-09-18T02:42:28;19.70;99.90
7708;DHT22;3896;48.758;8.888;2023-09-18T02:44:53;19.70;99.90
7708;DHT22;3896;48.758;8.888;2023-09-18T02:47:19;19.70;99.90
7708;DHT22;3896;48.758;8.888;2023-09-18T02:49:44;19.70;99.90
7708;DHT22;3896;48.758;8.888;2023-09-18T02:52:10;19.70;99.90
7708;DHT22;3896;48.758;8.888;2023-09-18T02:54:35;19.70;99.90
7708;DHT22;3896;48.758;8.888;2023-09-18T02:57:01;19.70;99.90
7708;DHT22;3896;48.758;8.888;2023-09-18T02:59:27;19.70;99.90
7708;DHT22;3896;48.758;8.888;2023-09-18T03:01:52;19.70;99.90
7708;DHT22;3896;48.758;8.888;2023-09-18T03:04:18;19.70;99.90
7708;DHT22;3896;48.758;8.888;2023-09-18T03:06:44;19.60;99.90
7708;DHT22;3896;48.758;8.888;2023-09-18T03:09:09;19.60;99.90
7708;DHT22;3896;48.758;8.888;2023-09-18T03:11:35;19.60;99.90
7708;DHT22;3896;48.758;8.888;2023-09-18T03:14:00;19.60;99.90
7708;DHT22;3896;48.758;8.888;2023-09-18T03:16:26;19.60;99.90
7708;DHT22;3896;48.758;8.888;2023-09-18T03:18:51;19.60;99.90
7708;DHT22;3896;48.758;8.888;2023-09-18T03:21:17;19.60;99.90
7708;DHT22;3896;48.758;8.888;2023-09-18T03:23:42;19.60;99.90
7708;DHT22;3896;48.758;8.888;2023-09-18T03:26:08;19.50;99.90
7708;DHT22;3896;48.758;8.888;2023-09-18T03:28:33;19.50;99.90
7708;DHT22;3896;48.758;8.888;2023-09-18T03:30:59;19.50;99.90
7708;DHT22;3896;48.758;8.888;2023-09-18T03:33:25;19.50;99.90
7708;DHT22;3896;48.758;8.888;2023-09-18T03:35:51;19.50;99.90
7708;DHT22;3896;48.758;8.888;2023-09-18T03:38:19;19.50;99.90
7708;DHT22;3896;48.758;8.888;2023-09-18T03:40:46;19.50;99.90
7708;DHT22;3896;48.758;8.888;2023-09-18T03:43:12;19.50;99.90
7708;DHT22;3896;48.758;8.888;2023-09-18T03:45:38;19.50;99.90
7708;DHT22;3896;48.758;8.888;2023-09-18T03:48:04;19.50;99.90
7708;DHT22;3896;48.758;8.888;2023-09-18T03:50:30;19.50;99.90
7708;DHT22;3896;48.758;8.888;2023-09-18T03:52:55;19.50;99.90
7708;DHT22;3896;48.758;8.888;2023-09-18T03:55:21;19.50;99.90
7708;DHT22;3896;48.758;8.888;2023-09-18T03:57:46;19.50;99.90
7708;DHT22;3896;48.758;8.888;2023-09-18T04:00:14;19.50;99.90
7708;DHT22;3896;48.758;8.888;2023-09-18T04:02:39;19.40;99.90
7708;DHT22;3896;48.758;8.888;2023-09-18T04:05:06;19.40;99.90
7708;DHT22;3896;48.758;8.888;2023-09-18T04:07:32;19.40;99.90
7708;DHT22;3896;48.758;8.888;2023-09-18T04:09:58;19.50;99.90
7708;DHT22;3896;48.758;8.888;2023-09-18T04:12:23;19.40;99.90
7708;DHT22;3896;48.758;8.888;2023-09-18T04:14:49;19.40;99.90
7708;DHT22;3896;48.758;8.888;2023-09-18T04:17:15;19.50;99.90
7708;DHT22;3896;48.758;8.888;2023-09-18T04:19:40;19.50;99.90
7708;DHT22;3896;48.758;8.888;2023-09-18T04:22:06;19.50;99.90
7708;DHT22;3896;48.758;8.888;2023-09-18T04:24:32;19.50;99.90
7708;DHT22;3896;48.758;8.888;2023-09-18T04:26:57;19.50;99.90
7708;DHT22;3896;48.758;8.888;2023-09-18T04:29:23;19.60;99.90
7708;DHT22;3896;48.758;8.888;2023-09-18T04:31:48;19.50;99.90
7708;DHT22;3896;48.758;8.888;2023-09-18T04:34:14;19.60;99.90
7708;DHT22;3896;48.758;8.888;2023-09-18T04:36:40;19.60;99.90
7708;DHT22;3896;48.758;8.888;2023-09-18T04:39:06;19.60;99.90
7708;DHT22;3896;48.758;8.888;2023-09-18T04:41:32;19.60;99.90
7708;DHT22;3896;48.758;8.888;2023-09-18T04:43:58;19.60;99.90
7708;DHT22;3896;48.758;8.888;2023-09-18T04:46:24;19.60;99.90
7708;DHT22;3896;48.758;8.888;2023-09-18T04:48:50;19.60;99.90
7708;DHT22;3896;48.758;8.888;2023-09-18T04:51:16;19.60;99.90
7708;DHT22;3896;48.758;8.888;2023-09-18T04:53:41;19.60;99.90
7708;DHT22;3896;48.758;8.888;2023-09-18T04:56:07;19.60;99.90
7708;DHT22;3896;48.758;8.888;2023-09-18T04:58:35;19.60;99.90
7708;DHT22;3896;48.758;8.888;2023-09-18T05:01:03;19.60;99.90
7708;DHT22;3896;48.758;8.888;2023-09-18T05:03:32;19.60;99.90
7708;DHT22;3896;48.758;8.888;2023-09-18T05:05:58;19.60;99.90
7708;DHT22;3896;48.758;8.888;2023-09-18T05:08:24;19.50;99.90
7708;DHT22;3896;48.758;8.888;2023-09-18T05:10:49;19.50;99.90
7708;DHT22;3896;48.758;8.888;2023-09-18T05:13:15;19.50;99.90
7708;DHT22;3896;48.758;8.888;2023-09-18T05:15:41;19.50;99.90
7708;DHT22;3896;48.758;8.888;2023-09-18T05:18:06;19.50;99.90
7708;DHT22;3896;48.758;8.888;2023-09-18T05:20:34;19.50;99.90
7708;DHT22;3896;48.758;8.888;2023-09-18T05:22:59;19.50;99.90
7708;DHT22;3896;48.758;8.888;2023-09-18T05:25:27;19.50;99.90
7708;DHT22;3896;48.758;8.888;2023-09-18T05:27:57;19.50;99.90
7708;DHT22;3896;48.758;8.888;2023-09-18T05:30:26;19.50;99.90
7708;DHT22;3896;48.758;8.888;2023-09-18T05:32:54;19.50;99.90
7708;DHT22;3896;48.758;8.888;2023-09-18T05:35:20;19.50;99.90
7708;DHT22;3896;48.758;8.888;2023-09-18T05:37:46;19.50;99.90
7708;DHT22;3896;48.758;8.888;2023-09-18T05:40:13;19.50;99.90
7708;DHT22;3896;48.758;8.888;2023-09-18T05:42:40;19.50;99.90
7708;DHT22;3896;48.758;8.888;2023-09-18T05:45:09;19.50;99.90
7708;DHT22;3896;48.758;8.888;2023-09-18T05:47:34;19.50;99.90
7708;DHT22;3896;48.758;8.888;2023-09-18T05:50:02;19.50;99.90
7708;DHT22;3896;48.758;8.888;2023-09-18T05:52:29;19.50;99.90
7708;DHT22;3896;48.758;8.888;2023-09-18T05:54:54;19.50;99.90
7708;DHT22;3896;48.758;8.888;2023-09-18T05:57:20;19.50;99.90
7708;DHT22;3896;48.758;8.888;2023-09-18T05:59:46;19.50;99.90
7708;DHT22;3896;48.758;8.888;2023-09-18T06:02:11;19.50;99.90
7708;DHT22;3896;48.758;8.888;2023-09-18T06:04:37;19.50;99.90
7708;DHT22;3896;48.758;8.888;2023-09-18T06:07:03;19.60;99.90
7708;DHT22;3896;48.758;8.888;2023-09-18T06:09:29;19.60;99.90
7708;DHT22;3896;48.758;8.888;2023-09-18T06:11:54;19.60;99.90
7708;DHT22;3896;48.758;8.888;2023-09-18T06:14:20;19.60;99.90
7708;DHT22;3896;48.758;8.888;2023-09-18T06:16:46;19.60;99.90
7708;DHT22;3896;48.758;8.888;2023-09-18T06:19:11;19.60;99.90
7708;DHT22;3896;48.758;8.888;2023-09-18T06:21:38;19.60;99.90
7708;DHT22;3896;48.758;8.888;2023-09-18T06:24:03;20.10;99.90
7708;DHT22;3896;48.758;8.888;2023-09-18T06:26:29;19.90;99.90
7708;DHT22;3896;48.758;8.888;2023-09-18T06:28:55;19.90;99.90
7708;DHT22;3896;48.758;8.888;2023-09-18T06:31:21;19.90;99.90
7708;DHT22;3896;48.758;8.888;2023-09-18T06:33:46;19.90;99.90
7708;DHT22;3896;48.758;8.888;2023-09-18T06:36:13;19.90;99.90
7708;DHT22;3896;48.758;8.888;2023-09-18T06:38:39;19.90;99.90
7708;DHT22;3896;48.758;8.888;2023-09-18T06:41:04;19.90;99.90
7708;DHT22;3896;48.758;8.888;2023-09-18T06:43:30;19.90;99.90
7708;DHT22;3896;48.758;8.888;2023-09-18T06:45:55;19.90;99.90
7708;DHT22;3896;48.758;8.888;2023-09-18T06:48:23;19.90;99.90
7708;DHT22;3896;48.758;8.888;2023-09-18T06:50:49;19.90;99.90
7708;DHT22;3896;48.758;8.888;2023-09-18T06:53:15;19.90;99.90
7708;DHT22;3896;48.758;8.888;2023-09-18T06:55:40;20.00;99.90
7708;DHT22;3896;48.758;8.888;2023-09-18T06:58:06;20.00;99.90
7708;DHT22;3896;48.758;8.888;2023-09-18T07:00:31;20.00;99.90
7708;DHT22;3896;48.758;8.888;2023-09-18T07:02:57;20.00;99.90
7708;DHT22;3896;48.758;8.888;2023-09-18T07:05:22;20.00;99.90
7708;DHT22;3896;48.758;8.888;2023-09-18T07:07:48;20.10;99.90
7708;DHT22;3896;48.758;8.888;2023-09-18T07:10:14;20.10;99.90
7708;DHT22;3896;48.758;8.888;2023-09-18T07:12:39;20.20;99.90
7708;DHT22;3896;48.758;8.888;2023-09-18T07:15:05;20.20;99.90
7708;DHT22;3896;48.758;8.888;2023-09-18T07:17:32;20.20;99.90
7708;DHT22;3896;48.758;8.888;2023-09-18T07:19:58;20.20;99.90
7708;DHT22;3896;48.758;8.888;2023-09-18T07:22:25;20.30;99.90
7708;DHT22;3896;48.758;8.888;2023-09-18T07:24:50;20.30;99.90
7708;DHT22;3896;48.758;8.888;2023-09-18T07:27:16;20.30;99.90
7708;DHT22;3896;48.758;8.888;2023-09-18T07:29:41;20.30;99.90
7708;DHT22;3896;48.758;8.888;2023-09-18T07:32:07;20.40;99.90
7708;DHT22;3896;48.758;8.888;2023-09-18T07:34:33;20.40;99.90
7708;DHT22;3896;48.758;8.888;2023-09-18T07:36:58;20.40;99.90
7708;DHT22;3896;48.758;8.888;2023-09-18T07:39:24;20.50;99.90
7708;DHT22;3896;48.758;8.888;2023-09-18T07:41:52;20.50;99.90
7708;DHT22;3896;48.758;8.888;2023-09-18T07:44:21;20.50;99.90
7708;DHT22;3896;48.758;8.888;2023-09-18T07:46:47;20.60;99.90
7708;DHT22;3896;48.758;8.888;2023-09-18T07:49:14;20.60;99.90
7708;DHT22;3896;48.758;8.888;2023-09-18T07:51:39;20.60;99.90
7708;DHT22;3896;48.758;8.888;2023-09-18T07:54:07;20.70;99.90
7708;DHT22;3896;48.758;8.888;2023-09-18T07:56:32;20.70;99.90
7708;DHT22;3896;48.758;8.888;2023-09-18T07:58:59;20.70;99.90
7708;DHT22;3896;48.758;8.888;2023-09-18T08:01:25;20.70;99.90
7708;DHT22;3896;48.758;8.888;2023-09-18T08:03:50;20.70;99.90
7708;DHT22;3896;48.758;8.888;2023-09-18T08:06:16;20.70;99.90
7708;DHT22;3896;48.758;8.888;2023-09-18T08:08:44;20.80;99.90
7708;DHT22;3896;48.758;8.888;2023-09-18T08:11:10;20.80;99.90
7708;DHT22;3896;48.758;8.888;2023-09-18T08:13:36;20.80;99.90
7708;DHT22;3896;48.758;8.888;2023-09-18T08:16:06;20.80;99.90
7708;DHT22;3896;48.758;8.888;2023-09-18T08:18:32;20.80;99.90
7708;DHT22;3896;48.758;8.888;2023-09-18T08:20:57;20.80;99.90
7708;DHT22;3896;48.758;8.888;2023-09-18T08:23:24;20.80;99.90
7708;DHT22;3896;48.758;8.888;2023-09-18T08:25:50;20.80;99.90
7708;DHT22;3896;48.758;8.888;2023-09-18T08:28:17;20.80;99.90
7708;DHT22;3896;48.758;8.888;2023-09-18T08:30:42;20.80;99.90
7708;DHT22;3896;48.758;8.888;2023-09-18T08:33:15;20.80;99.90
7708;DHT22;3896;48.758;8.888;2023-09-18T08:35:41;20.80;99.90
7708;DHT22;3896;48.758;8.888;2023-09-18T08:38:06;20.70;99.90
7708;DHT22;3896;48.758;8.888;2023-09-18T08:40:33;20.70;99.90
7708;DHT22;3896;48.758;8.888;2023-09-18T08:43:00;20.70;99.90
7708;DHT22;3896;48.758;8.888;2023-09-18T08:45:40;20.60;99.90
7708;DHT22;3896;48.758;8.888;2023-09-18T08:48:09;20.60;99.90
7708;DHT22;3896;48.758;8.888;2023-09-18T08:50:36;20.60;99.90
7708;DHT22;3896;48.758;8.888;2023-09-18T08:53:03;20.50;99.90
7708;DHT22;3896;48.758;8.888;2023-09-18T08:55:29;20.50;99.90
7708;DHT22;3896;48.758;8.888;2023-09-18T08:57:55;20.50;99.90
7708;DHT22;3896;48.758;8.888;2023-09-18T09:00:23;20.40;99.90
7708;DHT22;3896;48.758;8.888;2023-09-18T09:02:49;20.40;99.90
7708;DHT22;3896;48.758;8.888;2023-09-18T09:05:16;20.40;99.90
7708;DHT22;3896;48.758;8.888;2023-09-18T09:07:42;20.40;99.90
7708;DHT22;3896;48.758;8.888;2023-09-18T09:10:08;20.30;99.90
7708;DHT22;3896;48.758;8.888;2023-09-18T09:12:50;20.30;99.90
7708;DHT22;3896;48.758;8.888;2023-09-18T09:15:17;20.20;99.90
7708;DHT22;3896;48.758;8.888;2023-09-18T09:17:43;20.30;99.90
7708;DHT22;3896;48.758;8.888;2023-09-18T09:20:13;20.30;99.90
7708;DHT22;3896;48.758;8.888;2023-09-18T09:22:40;20.20;99.90
7708;DHT22;3896;48.758;8.888;2023-09-18T09:25:27;20.20;99.90
7708;DHT22;3896;48.758;8.888;2023-09-18T09:27:54;20.20;99.90
7708;DHT22;3896;48.758;8.888;2023-09-18T09:30:25;20.20;99.90
7708;DHT22;3896;48.758;8.888;2023-09-18T09:32:52;20.10;99.90
7708;DHT22;3896;48.758;8.888;2023-09-18T09:35:25;20.10;99.90
7708;DHT22;3896;48.758;8.888;2023-09-18T09:38:00;20.10;99.90
7708;DHT22;3896;48.758;8.888;2023-09-18T09:40:28;20.10;99.90
7708;DHT22;3896;48.758;8.888;2023-09-18T09:42:55;20.00;99.90
7708;DHT22;3896;48.758;8.888;2023-09-18T09:45:30;20.10;99.90
7708;DHT22;3896;48.758;8.888;2023-09-18T09:47:57;20.00;99.90
7708;DHT22;3896;48.758;8.888;2023-09-18T09:50:23;20.10;99.90
7708;DHT22;3896;48.758;8.888;2023-09-18T09:52:51;20.10;99.90
7708;DHT22;3896;48.758;8.888;2023-09-18T09:55:28;20.20;99.90
7708;DHT22;3896;48.758;8.888;2023-09-18T09:57:59;20.20;99.90
7708;DHT22;3896;48.758;8.888;2023-09-18T10:03:19;20.20;99.90
7708;DHT22;3896;48.758;8.888;2023-09-18T10:05:50;20.30;99.90
7708;DHT22;3896;48.758;8.888;2023-09-18T10:08:24;20.30;99.90
7708;DHT22;3896;48.758;8.888;2023-09-18T10:10:55;20.30;99.90
7708;DHT22;3896;48.758;8.888;2023-09-18T10:16:07;20.40;99.90
7708;DHT22;3896;48.758;8.888;2023-09-18T10:18:44;20.40;99.90
7708;DHT22;3896;48.758;8.888;2023-09-18T10:23:59;20.40;99.90
7708;DHT22;3896;48.758;8.888;2023-09-18T10:26:32;20.40;99.90
7708;DHT22;3896;48.758;8.888;2023-09-18T10:28:59;20.40;99.90
7708;DHT22;3896;48.758;8.888;2023-09-18T10:31:28;20.40;99.90
7708;DHT22;3896;48.758;8.888;2023-09-18T10:33:56;20.40;99.90
7708;DHT22;3896;48.758;8.888;2023-09-18T10:36:23;20.40;99.90
7708;DHT22;3896;48.758;8.888;2023-09-18T10:38:50;20.40;99.90
7708;DHT22;3896;48.758;8.888;2023-09-18T10:41:20;20.40;99.90
7708;DHT22;3896;48.758;8.888;2023-09-18T10:43:46;20.50;99.90
7708;DHT22;3896;48.758;8.888;2023-09-18T10:46:15;20.40;99.90
7708;DHT22;3896;48.758;8.888;2023-09-18T10:48:42;20.50;99.90
7708;DHT22;3896;48.758;8.888;2023-09-18T10:51:09;20.50;99.90
7708;DHT22;3896;48.758;8.888;2023-09-18T10:53:35;20.50;99.90
7708;DHT22;3896;48.758;8.888;2023-09-18T10:56:04;20.50;99.90
7708;DHT22;3896;48.758;8.888;2023-09-18T10:58:30;20.50;99.90
7708;DHT22;3896;48.758;8.888;2023-09-18T11:00:56;20.50;99.90
7708;DHT22;3896;48.758;8.888;2023-09-18T11:03:23;20.50;99.90
7708;DHT22;3896;48.758;8.888;2023-09-18T11:06:05;20.50;99.90
7708;DHT22;3896;48.758;8.888;2023-09-18T11:08:42;20.50;99.90
7708;DHT22;3896;48.758;8.888;2023-09-18T11:11:10;20.50;99.90
7708;DHT22;3896;48.758;8.888;2023-09-18T11:13:43;20.50;99.90
7708;DHT22;3896;48.758;8.888;2023-09-18T11:16:18;20.50;99.90
7708;DHT22;3896;48.758;8.888;2023-09-18T11:18:50;20.40;99.90
7708;DHT22;3896;48.758;8.888;2023-09-18T11:21:18;20.50;99.90
7708;DHT22;3896;48.758;8.888;2023-09-18T11:24:01;20.50;99.90
7708;DHT22;3896;48.758;8.888;2023-09-18T11:26:31;20.50;99.90
7708;DHT22;3896;48.758;8.888;2023-09-18T11:29:06;20.60;99.90
7708;DHT22;3896;48.758;8.888;2023-09-18T11:31:47;20.60;99.90
7708;DHT22;3896;48.758;8.888;2023-09-18T11:34:30;20.60;99.90
7708;DHT22;3896;48.758;8.888;2023-09-18T11:37:01;20.60;99.90
7708;DHT22;3896;48.758;8.888;2023-09-18T11:39:47;20.60;99.90
7708;DHT22;3896;48.758;8.888;2023-09-18T11:42:18;20.60;99.90
7708;DHT22;3896;48.758;8.888;2023-09-18T11:44:45;20.70;99.90
7708;DHT22;3896;48.758;8.888;2023-09-18T11:47:18;20.70;99.90
7708;DHT22;3896;48.758;8.888;2023-09-18T11:49:58;20.70;99.90
7708;DHT22;3896;48.758;8.888;2023-09-18T11:52:26;20.70;99.90
7708;DHT22;3896;48.758;8.888;2023-09-18T11:54:52;20.70;99.90
7708;DHT22;3896;48.758;8.888;2023-09-18T11:57:18;20.80;99.90
7708;DHT22;3896;48.758;8.888;2023-09-18T11:59:47;20.80;99.90
7708;DHT22;3896;48.758;8.888;2023-09-18T12:02:14;20.80;99.90
7708;DHT22;3896;48.758;8.888;2023-09-18T12:04:53;20.90;99.90
7708;DHT22;3896;48.758;8.888;2023-09-18T12:07:19;20.90;99.90
7708;DHT22;3896;48.758;8.888;2023-09-18T12:09:45;20.90;99.90
7708;DHT22;3896;48.758;8.888;2023-09-18T12:12:11;20.90;99.90
7708;DHT22;3896;48.758;8.888;2023-09-18T12:14:39;20.90;99.90
7708;DHT22;3896;48.758;8.888;2023-09-18T12:17:07;20.90;99.90
7708;DHT22;3896;48.758;8.888;2023-09-18T12:19:34;21.00;99.90
7708;DHT22;3896;48.758;8.888;2023-09-18T12:22:02;21.00;99.90
7708;DHT22;3896;48.758;8.888;2023-09-18T12:24:29;21.00;99.90
7708;DHT22;3896;48.758;8.888;2023-09-18T12:26:55;21.10;99.90
7708;DHT22;3896;48.758;8.888;2023-09-18T12:29:23;21.10;99.90
7708;DHT22;3896;48.758;8.888;2023-09-18T12:31:49;21.10;99.90
7708;DHT22;3896;48.758;8.888;2023-09-18T12:34:19;21.10;99.90
7708;DHT22;3896;48.758;8.888;2023-09-18T12:36:50;21.20;99.90
7708;DHT22;3896;48.758;8.888;2023-09-18T12:39:16;21.20;99.90
7708;DHT22;3896;48.758;8.888;2023-09-18T12:41:46;21.30;99.90
7708;DHT22;3896;48.758;8.888;2023-09-18T12:44:12;21.30;99.90
7708;DHT22;3896;48.758;8.888;2023-09-18T12:46:40;21.40;99.90
7708;DHT22;3896;48.758;8.888;2023-09-18T12:49:19;21.40;99.90
7708;DHT22;3896;48.758;8.888;2023-09-18T12:51:57;21.50;99.90
7708;DHT22;3896;48.758;8.888;2023-09-18T12:54:43;21.50;99.90
7708;DHT22;3896;48.758;8.888;2023-09-18T12:57:14;21.60;99.90
7708;DHT22;3896;48.758;8.888;2023-09-18T12:59:40;21.70;99.90
7708;DHT22;3896;48.758;8.888;2023-09-18T13:02:06;21.70;99.90
7708;DHT22;3896;48.758;8.888;2023-09-18T13:04:34;21.80;99.90
7708;DHT22;3896;48.758;8.888;2023-09-18T13:07:12;21.90;99.90
7708;DHT22;3896;48.758;8.888;2023-09-18T13:09:42;21.90;99.90
7708;DHT22;3896;48.758;8.888;2023-09-18T13:12:09;22.00;99.90
7708;DHT22;3896;48.758;8.888;2023-09-18T13:15:02;22.00;99.90
7708;DHT22;3896;48.758;8.888;2023-09-18T13:17:51;22.10;99.90
7708;DHT22;3896;48.758;8.888;2023-09-18T13:20:21;22.10;99.90
7708;DHT22;3896;48.758;8.888;2023-09-18T13:22:51;22.20;99.90
7708;DHT22;3896;48.758;8.888;2023-09-18T13:25:24;22.20;99.90
7708;DHT22;3896;48.758;8.888;2023-09-18T13:27:51;22.30;99.50
7708;DHT22;3896;48.758;8.888;2023-09-18T13:30:17;22.40;99.70
7708;DHT22;3896;48.758;8.888;2023-09-18T13:32:44;22.40;99.30
7708;DHT22;3896;48.758;8.888;2023-09-18T13:35:10;22.50;99.00
7708;DHT22;3896;48.758;8.888;2023-09-18T13:37:37;22.60;98.60
7708;DHT22;3896;48.758;8.888;2023-09-18T13:40:05;22.60;98.10
7708;DHT22;3896;48.758;8.888;2023-09-18T13:42:32;22.70;98.00
7708;DHT22;3896;48.758;8.888;2023-09-18T13:44:59;22.70;97.90
7708;DHT22;3896;48.758;8.888;2023-09-18T13:47:26;22.80;97.60
7708;DHT22;3896;48.758;8.888;2023-09-18T13:49:53;22.90;97.60
7708;DHT22;3896;48.758;8.888;2023-09-18T13:52:18;22.90;97.20
7708;DHT22;3896;48.758;8.888;2023-09-18T13:54:45;23.00;96.50
7708;DHT22;3896;48.758;8.888;2023-09-18T13:57:16;23.10;96.30
7708;DHT22;3896;48.758;8.888;2023-09-18T13:59:42;23.10;95.70
7708;DHT22;3896;48.758;8.888;2023-09-18T14:02:08;23.20;95.20
7708;DHT22;3896;48.758;8.888;2023-09-18T14:04:34;23.20;94.60
7708;DHT22;3896;48.758;8.888;2023-09-18T14:06:59;23.20;94.50
7708;DHT22;3896;48.758;8.888;2023-09-18T14:09:25;23.30;94.30
7708;DHT22;3896;48.758;8.888;2023-09-18T14:11:50;23.40;94.10
7708;DHT22;3896;48.758;8.888;2023-09-18T14:14:16;23.40;93.70
7708;DHT22;3896;48.758;8.888;2023-09-18T14:16:41;23.50;93.40
7708;DHT22;3896;48.758;8.888;2023-09-18T14:19:07;23.50;93.10
7708;DHT22;3896;48.758;8.888;2023-09-18T14:21:36;23.60;92.80
7708;DHT22;3896;48.758;8.888;2023-09-18T14:24:04;23.60;92.50
7708;DHT22;3896;48.758;8.888;2023-09-18T14:26:30;23.70;92.20
7708;DHT22;3896;48.758;8.888;2023-09-18T14:28:56;23.70;92.00
7708;DHT22;3896;48.758;8.888;2023-09-18T14:31:21;23.80;91.70
7708;DHT22;3896;48.758;8.888;2023-09-18T14:33:47;23.80;91.40
7708;DHT22;3896;48.758;8.888;2023-09-18T14:36:12;23.90;91.00
7708;DHT22;3896;48.758;8.888;2023-09-18T14:38:38;24.00;90.80
7708;DHT22;3896;48.758;8.888;2023-09-18T14:41:05;24.20;90.60
7708;DHT22;3896;48.758;8.888;2023-09-18T14:43:32;24.40;89.60
7708;DHT22;3896;48.758;8.888;2023-09-18T14:45:57;24.50;88.30
7708;DHT22;3896;48.758;8.888;2023-09-18T14:48:24;24.60;87.70
7708;DHT22;3896;48.758;8.888;2023-09-18T14:50:56;24.70;86.70
7708;DHT22;3896;48.758;8.888;2023-09-18T14:53:22;24.80;86.10
7708;DHT22;3896;48.758;8.888;2023-09-18T14:55:48;24.90;85.40
7708;DHT22;3896;48.758;8.888;2023-09-18T14:58:14;24.90;84.60
7708;DHT22;3896;48.758;8.888;2023-09-18T15:00:40;25.00;84.20
7708;DHT22;3896;48.758;8.888;2023-09-18T15:03:05;25.00;83.50
7708;DHT22;3896;48.758;8.888;2023-09-18T15:05:31;25.00;83.10
7708;DHT22;3896;48.758;8.888;2023-09-18T15:07:56;25.00;82.80
7708;DHT22;3896;48.758;8.888;2023-09-18T15:10:22;25.00;82.20
7708;DHT22;3896;48.758;8.888;2023-09-18T15:12:47;25.00;81.70
7708;DHT22;3896;48.758;8.888;2023-09-18T15:15:13;25.00;81.30
7708;DHT22;3896;48.758;8.888;2023-09-18T15:17:39;25.00;81.00
7708;DHT22;3896;48.758;8.888;2023-09-18T15:20:05;25.00;81.00
7708;DHT22;3896;48.758;8.888;2023-09-18T15:22:31;25.00;80.80
7708;DHT22;3896;48.758;8.888;2023-09-18T15:24:57;24.90;80.80
7708;DHT22;3896;48.758;8.888;2023-09-18T15:27:23;24.90;80.80
7708;DHT22;3896;48.758;8.888;2023-09-18T15:29:49;24.80;80.50
7708;DHT22;3896;48.758;8.888;2023-09-18T15:32:14;24.80;80.30
7708;DHT22;3896;48.758;8.888;2023-09-18T15:34:40;24.80;80.00
7708;DHT22;3896;48.758;8.888;2023-09-18T15:37:05;24.80;79.70
7708;DHT22;3896;48.758;8.888;2023-09-18T15:39:31;24.80;79.70
7708;DHT22;3896;48.758;8.888;2023-09-18T15:41:58;24.70;79.70
7708;DHT22;3896;48.758;8.888;2023-09-18T15:44:24;24.60;79.70
7708;DHT22;3896;48.758;8.888;2023-09-18T15:46:50;24.50;79.60
7708;DHT22;3896;48.758;8.888;2023-09-18T15:49:15;24.40;79.80
7708;DHT22;3896;48.758;8.888;2023-09-18T15:51:41;24.40;79.80
7708;DHT22;3896;48.758;8.888;2023-09-18T15:54:07;24.40;79.80
7708;DHT22;3896;48.758;8.888;2023-09-18T15:56:33;24.40;80.10
7708;DHT22;3896;48.758;8.888;2023-09-18T15:58:59;24.30;80.00
7708;DHT22;3896;48.758;8.888;2023-09-18T16:01:25;24.20;80.10
7708;DHT22;3896;48.758;8.888;2023-09-18T16:03:51;24.20;80.30
7708;DHT22;3896;48.758;8.888;2023-09-18T16:06:17;24.10;80.40
7708;DHT22;3896;48.758;8.888;2023-09-18T16:08:44;24.00;80.60
7708;DHT22;3896;48.758;8.888;2023-09-18T16:11:10;24.00;80.50
7708;DHT22;3896;48.758;8.888;2023-09-18T16:13:37;23.90;80.30
7708;DHT22;3896;48.758;8.888;2023-09-18T16:16:03;23.90;80.50
7708;DHT22;3896;48.758;8.888;2023-09-18T16:18:29;23.80;80.60
7708;DHT22;3896;48.758;8.888;2023-09-18T16:20:54;23.70;80.60
7708;DHT22;3896;48.758;8.888;2023-09-18T16:23:20;23.70;80.80
7708;DHT22;3896;48.758;8.888;2023-09-18T16:25:46;23.60;81.00
7708;DHT22;3896;48.758;8.888;2023-09-18T16:28:11;23.50;81.10